Time;durP1;ratioP1;P1;durP2;ratioP2;P2;SDS_P1;SDS_P2;PMS_P1;PMS_P2;Temp;Humidity;BMP_temperature;BMP_pressure;BME280_temperature;BME280_humidity;BME280_pressure;Samples;Min_cycle;Max_cycle;Signal;HPM_P1;HPM_P2
2023/09/24 00:00:13;;;;;;;;;0.00;0.00;;;;;-143.90;98.15;75132.94;4984454;28;102015;-72
2023/09/24 00:02:40;;;;;;;;;1.00;0.00;;;;;-143.90;98.48;75126.75;4985878;28;108148;-72
2023/09/24 00:05:08;;;;;;;;;1.00;1.00;;;;;-143.90;98.30;75135.00;4976103;28;102381;-73
2023/09/24 00:07:35;;;;;;;;;0.00;0.00;;;;;-143.90;98.14;75135.00;4984106;28;101953;-73
2023/09/24 00:10:03;;;;;;;;;0.00;0.00;;;;;-143.90;98.75;75122.59;4982707;28;102019;-73
2023/09/24 00:12:31;;;;;;;;;0.00;0.00;;;;;-143.90;97.58;75132.94;4981100;27;104000;-73
2023/09/24 00:14:58;;;;;;;;;0.00;0.00;;;;;-143.90;97.46;75126.75;4988070;28;103033;-72
2023/09/24 00:17:25;;;;;;;;;0.00;0.00;;;;;-143.90;96.65;75135.00;4982734;27;102050;-73
2023/09/24 00:19:53;;;;;;;;;1.00;0.00;;;;;-143.90;96.76;75132.94;4982085;27;102317;-73
2023/09/24 00:22:20;;;;;;;;;1.00;0.00;;;;;-143.90;96.09;75139.16;4985298;28;103307;-72
2023/09/24 00:24:46;;;;;;;;;1.00;1.00;;;;;-143.90;96.22;75122.59;4976698;28;102345;-72
2023/09/24 00:27:14;;;;;;;;;0.00;0.00;;;;;-143.90;95.95;75126.75;4981262;28;102190;-73
2023/09/24 00:29:41;;;;;;;;;1.00;1.00;;;;;-143.90;96.08;75128.81;4983182;28;102551;-72
2023/09/24 00:32:08;;;;;;;;;1.00;1.00;;;;;-143.90;95.70;75145.34;4981116;28;104128;-74
2023/09/24 00:34:36;;;;;;;;;2.25;1.25;;;;;-143.90;94.69;75147.41;4972725;28;102255;-73
2023/09/24 00:37:02;;;;;;;;;2.00;2.00;;;;;-143.90;95.73;75145.34;4985535;28;102414;-73
2023/09/24 00:39:30;;;;;;;;;0.50;0.50;;;;;-143.90;95.80;75143.28;4982556;28;102045;-73
2023/09/24 00:41:56;;;;;;;;;0.00;0.00;;;;;-143.90;95.69;75155.69;4979730;28;103882;-73
2023/09/24 00:44:23;;;;;;;;;0.00;0.00;;;;;-143.90;96.09;75161.88;4989524;28;104314;-73
2023/09/24 00:46:50;;;;;;;;;0.00;0.00;;;;;-143.90;95.82;75168.09;4980203;28;102018;-72
2023/09/24 00:49:17;;;;;;;;;0.75;0.00;;;;;-143.90;96.34;75184.63;4977786;27;101982;-73
2023/09/24 00:51:45;;;;;;;;;0.75;0.75;;;;;-143.90;96.34;75178.41;4970616;28;106021;-73
2023/09/24 00:54:12;;;;;;;;;0.00;0.00;;;;;-143.90;96.27;75190.81;4976023;27;102017;-73
2023/09/24 00:56:40;;;;;;;;;0.00;0.00;;;;;-143.90;95.78;75197.03;4965418;27;102119;-73
2023/09/24 00:59:08;;;;;;;;;0.00;0.00;;;;;-143.90;96.36;75197.03;4980390;27;101996;-73
2023/09/24 01:01:35;;;;;;;;;0.00;0.00;;;;;-143.90;96.29;75211.50;4984617;28;105448;-73
2023/09/24 01:04:05;;;;;;;;;0.00;0.00;;;;;-143.90;95.80;75205.28;4986849;27;102037;-73
2023/09/24 01:06:34;;;;;;;;;0.00;0.00;;;;;-143.90;96.21;75230.09;4976931;27;102130;-72
2023/09/24 01:09:03;;;;;;;;;0.00;0.00;;;;;-143.90;95.99;75219.78;4980801;28;102340;-72
2023/09/24 01:11:31;;;;;;;;;0.00;0.00;;;;;-143.90;94.25;75238.38;4971784;27;104129;-72
2023/09/24 01:13:58;;;;;;;;;0.75;0.75;;;;;-143.90;94.13;75242.50;4984201;28;102248;-74
2023/09/24 01:16:25;;;;;;;;;0.50;0.00;;;;;-143.90;93.20;75246.66;4990108;28;102198;-74
2023/09/24 01:18:53;;;;;;;;;0.00;0.00;;;;;-143.90;93.27;75250.78;4986333;28;102573;-72
2023/09/24 01:21:20;;;;;;;;;0.25;0.25;;;;;-143.90;93.06;75259.06;4992513;28;103331;-73
2023/09/24 01:23:48;;;;;;;;;0.00;0.00;;;;;-143.90;93.41;75250.78;4988668;27;105447;-72
2023/09/24 01:26:18;;;;;;;;;0.50;0.00;;;;;-143.90;94.64;75242.50;4985094;28;102424;-72
2023/09/24 01:28:46;;;;;;;;;0.00;0.00;;;;;-143.90;95.55;75240.44;4988018;27;103197;-72
2023/09/24 01:31:15;;;;;;;;;0.50;0.50;;;;;-143.90;95.43;75238.38;4981853;28;103079;-72
2023/09/24 01:33:43;;;;;;;;;0.00;0.00;;;;;-143.90;95.38;75244.59;4984819;27;102098;-72
2023/09/24 01:36:10;;;;;;;;;0.00;0.00;;;;;-143.90;94.91;75244.59;4980354;27;101948;-73
2023/09/24 01:38:41;;;;;;;;;0.00;0.00;;;;;-143.90;94.55;75267.31;4988831;27;102103;-72
2023/09/24 01:41:12;;;;;;;;;0.00;0.00;;;;;-143.90;93.06;75263.19;4985819;27;104980;-73
2023/09/24 01:43:43;;;;;;;;;0.00;0.00;;;;;-143.90;93.20;75271.47;4979396;28;105265;-73
2023/09/24 01:46:13;;;;;;;;;1.00;1.00;;;;;-143.90;93.48;75275.59;4970637;28;101981;-73
2023/09/24 01:48:40;;;;;;;;;0.25;0.25;;;;;-143.90;93.03;75279.72;4981703;28;105161;-73
2023/09/24 01:51:10;;;;;;;;;0.00;0.00;;;;;-143.90;93.77;75271.47;4978109;27;104056;-73
2023/09/24 01:53:38;;;;;;;;;0.00;0.00;;;;;-143.90;94.01;75283.84;4984762;28;102356;-73
2023/09/24 01:56:07;;;;;;;;;0.00;0.00;;;;;-143.90;94.37;75300.41;4985143;28;102063;-73
2023/09/24 01:58:38;;;;;;;;;0.00;0.00;;;;;-143.90;94.96;75292.13;4989674;28;102384;-73
2023/09/24 02:01:07;;;;;;;;;0.00;0.00;;;;;-143.90;94.66;75288.00;4988342;27;105572;-73
2023/09/24 02:03:38;;;;;;;;;0.00;0.00;;;;;-143.90;94.59;75294.19;4984431;27;103095;-74
2023/09/24 02:06:06;;;;;;;;;0.00;0.00;;;;;-143.90;94.50;75290.06;4988087;28;102008;-72
2023/09/24 02:08:34;;;;;;;;;0.00;0.00;;;;;-143.90;94.73;75298.34;4994332;28;102018;-72
2023/09/24 02:11:01;;;;;;;;;0.00;0.00;;;;;-143.90;94.33;75308.66;4987929;28;106382;-73
2023/09/24 02:13:28;;;;;;;;;0.00;0.00;;;;;-143.90;94.42;75316.94;4991686;27;102033;-73
2023/09/24 02:15:55;;;;;;;;;0.25;0.25;;;;;-143.90;94.58;75308.66;4988234;28;101942;-73
2023/09/24 02:18:22;;;;;;;;;0.00;0.00;;;;;-143.90;94.68;75314.88;4985306;27;102128;-73
2023/09/24 02:20:52;;;;;;;;;0.00;0.00;;;;;-143.90;94.47;75329.34;4982460;27;103325;-73
2023/09/24 02:23:21;;;;;;;;;0.00;0.00;;;;;-143.90;94.48;75325.22;4984981;28;102168;-73
2023/09/24 02:25:48;;;;;;;;;0.00;0.00;;;;;-143.90;94.37;75331.41;4983980;28;102108;-72
2023/09/24 02:28:17;;;;;;;;;0.00;0.00;;;;;-143.90;94.65;75341.75;4985539;27;102396;-73
2023/09/24 02:30:46;;;;;;;;;0.00;0.00;;;;;-143.90;94.59;75343.81;4988364;27;103092;-73
2023/09/24 02:33:13;;;;;;;;;0.00;0.00;;;;;-143.90;94.80;75347.94;4974812;27;102244;-73
2023/09/24 02:35:40;;;;;;;;;0.00;0.00;;;;;-143.90;94.93;75354.16;4966841;28;102038;-73
2023/09/24 02:38:08;;;;;;;;;0.75;0.75;;;;;-143.90;94.70;75362.44;4977054;28;102139;-73
2023/09/24 02:40:35;;;;;;;;;0.00;0.00;;;;;-143.90;95.26;75366.56;4986715;28;104360;-73
2023/09/24 02:43:03;;;;;;;;;0.75;0.00;;;;;-143.90;94.73;75383.09;4979546;28;102334;-73
2023/09/24 02:45:30;;;;;;;;;0.00;0.00;;;;;-143.90;95.19;75385.16;4987748;27;102227;-73
2023/09/24 02:47:57;;;;;;;;;0.25;0.25;;;;;-143.90;95.52;75391.38;4990954;27;102538;-73
2023/09/24 02:50:28;;;;;;;;;0.00;0.00;;;;;-143.90;94.95;75403.78;4988703;27;103719;-73
2023/09/24 02:52:58;;;;;;;;;1.00;1.00;;;;;-143.90;94.73;75401.72;4985372;28;105186;-73
2023/09/24 02:55:28;;;;;;;;;1.00;1.00;;;;;-143.90;94.99;75409.97;4968583;27;102160;-73
2023/09/24 02:57:55;;;;;;;;;0.00;0.00;;;;;-143.90;95.08;75409.97;4973427;28;102012;-72
2023/09/24 03:00:35;;;;;;;;;1.00;1.00;;;;;-143.90;95.19;75409.97;4972119;27;104313;-73
2023/09/24 03:03:05;;;;;;;;;1.00;0.00;;;;;-143.90;94.93;75418.25;4982799;28;102266;-73
2023/09/24 03:05:33;;;;;;;;;0.25;0.25;;;;;-143.90;94.99;75418.25;4986624;28;101856;-73
2023/09/24 03:08:02;;;;;;;;;0.00;0.00;;;;;-143.90;94.82;75424.44;4989230;28;102257;-73
2023/09/24 03:10:35;;;;;;;;;1.00;1.00;;;;;-143.90;94.82;75441.00;4982884;27;103150;-74
2023/09/24 03:13:04;;;;;;;;;1.00;1.00;;;;;-143.90;95.45;75449.25;4988143;28;102325;-74
2023/09/24 03:15:32;;;;;;;;;0.00;0.00;;;;;-143.90;96.02;75436.84;4987253;28;107514;-74
2023/09/24 03:18:00;;;;;;;;;0.00;0.00;;;;;-143.90;96.07;75447.19;4984740;27;102257;-73
2023/09/24 03:20:28;;;;;;;;;0.50;0.50;;;;;-143.90;95.75;75438.94;4985254;28;104467;-74
2023/09/24 03:23:02;;;;;;;;;0.00;0.00;;;;;-143.90;96.24;75441.00;4986796;27;104851;-73
2023/09/24 03:25:30;;;;;;;;;0.00;0.00;;;;;-143.90;96.15;75434.78;4990241;28;102032;-74
2023/09/24 03:27:58;;;;;;;;;0.00;0.00;;;;;-143.90;96.05;75434.78;4986447;28;102261;-73
2023/09/24 03:30:25;;;;;;;;;0.00;0.00;;;;;-143.90;96.38;75432.72;4987520;28;103042;-74
2023/09/24 03:32:54;;;;;;;;;1.00;0.00;;;;;-143.90;96.25;75434.78;4987943;27;102009;-74
2023/09/24 03:35:23;;;;;;;;;0.00;0.00;;;;;-143.90;96.06;75434.78;4988584;28;104927;-74
2023/09/24 03:37:52;;;;;;;;;0.25;0.00;;;;;-143.90;96.09;75432.72;4984880;28;102477;-74
2023/09/24 03:40:28;;;;;;;;;0.00;0.00;;;;;-143.90;96.12;75428.59;4986236;28;103293;-73
2023/09/24 03:42:56;;;;;;;;;0.00;0.00;;;;;-143.90;96.00;75441.00;4979837;28;104883;-73
2023/09/24 03:45:23;;;;;;;;;0.00;0.00;;;;;-143.90;96.04;75455.47;4980581;27;102381;-73
2023/09/24 03:47:52;;;;;;;;;0.00;0.00;;;;;-143.90;95.93;75443.06;4985772;28;102155;-73
2023/09/24 03:50:19;;;;;;;;;0.00;0.00;;;;;-143.90;95.52;75451.31;4981700;28;103973;-73
2023/09/24 03:52:50;;;;;;;;;0.00;0.00;;;;;-143.90;95.31;75455.47;4979915;28;101783;-73
2023/09/24 03:55:19;;;;;;;;;0.75;0.75;;;;;-143.90;95.02;75465.81;4959282;28;102189;-74
2023/09/24 03:57:47;;;;;;;;;0.00;0.00;;;;;-143.90;95.91;75465.81;4975695;28;101991;-73
2023/09/24 04:00:21;;;;;;;;;0.00;0.00;;;;;-143.90;96.17;75474.06;4985075;27;107943;-73
2023/09/24 04:02:50;;;;;;;;;0.00;0.00;;;;;-143.90;96.58;75465.81;4976845;28;101945;-73
2023/09/24 04:05:21;;;;;;;;;0.00;0.00;;;;;-143.90;96.39;75474.06;4987611;27;102146;-73
2023/09/24 04:07:53;;;;;;;;;1.00;0.00;;;;;-143.90;96.73;75474.06;4986293;28;102329;-73
2023/09/24 04:10:22;;;;;;;;;0.00;0.00;;;;;-143.90;96.50;75492.69;4989804;28;104233;-73
2023/09/24 04:12:52;;;;;;;;;0.75;0.75;;;;;-143.90;96.87;75469.94;4980563;27;103103;-74
2023/09/24 04:15:27;;;;;;;;;0.00;0.00;;;;;-143.90;96.45;75469.94;4985274;28;102197;-74
2023/09/24 04:17:56;;;;;;;;;0.00;0.00;;;;;-143.90;96.34;75478.22;4989267;27;102070;-73
2023/09/24 04:20:26;;;;;;;;;0.00;0.00;;;;;-143.90;96.55;75486.47;4988865;28;103674;-73
2023/09/24 04:22:53;;;;;;;;;0.00;0.00;;;;;-143.90;95.84;75484.41;4982985;27;102116;-73
2023/09/24 04:25:21;;;;;;;;;1.00;0.00;;;;;-143.90;96.09;75484.41;4985039;28;101956;-73
2023/09/24 04:27:49;;;;;;;;;0.25;0.00;;;;;-143.90;96.04;75474.06;4982787;28;102426;-73
2023/09/24 04:30:21;;;;;;;;;0.00;0.00;;;;;-143.90;96.31;75482.34;4987138;28;103007;-73
2023/09/24 04:32:53;;;;;;;;;0.00;0.00;;;;;-143.90;96.21;75480.28;4984500;28;103517;-74
2023/09/24 04:35:21;;;;;;;;;1.00;1.00;;;;;-143.90;96.10;75486.47;4983247;27;103062;-74
2023/09/24 04:37:50;;;;;;;;;0.00;0.00;;;;;-143.90;96.47;75494.75;4984029;28;102497;-73
2023/09/24 04:40:18;;;;;;;;;0.00;0.00;;;;;-143.90;96.04;75494.75;4982101;27;103974;-74
2023/09/24 04:42:46;;;;;;;;;0.50;0.50;;;;;-143.90;95.76;75490.63;4993108;28;103051;-72
2023/09/24 04:45:17;;;;;;;;;0.00;0.00;;;;;-143.90;95.67;75498.88;4982410;27;107143;-73
2023/09/24 04:47:45;;;;;;;;;0.75;0.75;;;;;-143.90;95.82;75490.63;4984651;28;102418;-73
2023/09/24 04:50:12;;;;;;;;;0.00;0.00;;;;;-143.90;95.71;75486.47;4979513;28;105736;-73
2023/09/24 04:52:42;;;;;;;;;0.50;0.50;;;;;-143.90;95.26;75511.28;4978460;28;102157;-73
2023/09/24 04:55:09;;;;;;;;;1.75;1.00;;;;;-143.90;95.13;75496.81;4969552;27;102299;-73
2023/09/24 04:57:36;;;;;;;;;0.00;0.00;;;;;-143.90;95.29;75500.94;4978227;28;102585;-73
2023/09/24 05:00:04;;;;;;;;;0.00;0.00;;;;;-143.90;95.83;75494.75;4987303;27;104054;-73
2023/09/24 05:02:30;;;;;;;;;0.00;0.00;;;;;-143.90;95.62;75511.28;4979498;27;102248;-73
2023/09/24 05:04:57;;;;;;;;;0.00;0.00;;;;;-143.90;95.61;75509.22;4987169;28;102198;-73
2023/09/24 05:07:24;;;;;;;;;0.50;0.50;;;;;-143.90;95.36;75513.34;4986955;27;102533;-73
2023/09/24 05:09:54;;;;;;;;;0.00;0.00;;;;;-143.90;95.43;75507.16;4987442;28;104477;-73
2023/09/24 05:12:22;;;;;;;;;0.00;0.00;;;;;-143.90;94.78;75509.22;4992656;27;101870;-73
2023/09/24 05:14:49;;;;;;;;;1.00;1.00;;;;;-143.90;94.65;75511.28;4990316;27;102019;-73
2023/09/24 05:17:16;;;;;;;;;0.00;0.00;;;;;-143.90;94.87;75507.16;4983391;28;102132;-73
2023/09/24 05:19:43;;;;;;;;;0.00;0.00;;;;;-143.90;94.36;75511.28;4990385;27;105521;-73
2023/09/24 05:22:10;;;;;;;;;0.00;0.00;;;;;-143.90;94.75;75500.94;4989098;27;101886;-73
2023/09/24 05:24:36;;;;;;;;;2.00;1.00;;;;;-143.90;94.72;75498.88;4987127;27;102392;-73
2023/09/24 05:27:03;;;;;;;;;1.75;1.75;;;;;-143.90;95.45;75505.09;4987440;28;102213;-73
2023/09/24 05:29:30;;;;;;;;;1.75;1.00;;;;;-143.90;94.98;75503.03;4980785;27;103084;-74
2023/09/24 05:31:57;;;;;;;;;0.25;0.25;;;;;-143.90;95.68;75507.16;4983146;28;101916;-73
2023/09/24 05:34:24;;;;;;;;;1.00;1.00;;;;;-143.90;95.86;75507.16;4987387;27;103352;-74
2023/09/24 05:36:51;;;;;;;;;1.00;1.00;;;;;-143.90;95.47;75503.03;4991213;27;102400;-74
2023/09/24 05:39:18;;;;;;;;;0.00;0.00;;;;;-143.90;94.35;75500.94;4989344;28;109209;-73
2023/09/24 05:41:45;;;;;;;;;1.00;1.00;;;;;-143.90;94.78;75509.22;4988127;27;102314;-73
2023/09/24 05:44:12;;;;;;;;;0.00;0.00;;;;;-143.90;95.40;75498.88;4986397;28;102039;-73
2023/09/24 05:46:39;;;;;;;;;0.00;0.00;;;;;-143.90;94.90;75515.41;4976746;27;103445;-73
2023/09/24 05:49:06;;;;;;;;;0.00;0.00;;;;;-143.90;94.68;75494.75;4986064;28;103246;-73
2023/09/24 05:51:33;;;;;;;;;0.00;0.00;;;;;-143.90;94.51;75486.47;4984626;28;102057;-74
2023/09/24 05:54:00;;;;;;;;;1.00;1.00;;;;;-143.90;93.68;75496.81;4987881;27;102265;-74
2023/09/24 05:56:26;;;;;;;;;1.00;0.00;;;;;-143.90;93.67;75490.63;4987774;27;102859;-74
2023/09/24 05:58:56;;;;;;;;;1.25;1.00;;;;;-143.90;93.73;75494.75;4956151;27;104247;-74
2023/09/24 06:01:23;;;;;;;;;1.00;1.00;;;;;-143.90;93.97;75482.34;4987549;28;102019;-74
2023/09/24 06:03:50;;;;;;;;;3.00;3.00;;;;;-143.90;93.91;75488.53;5001841;28;102265;-73
2023/09/24 06:06:17;;;;;;;;;1.00;1.00;;;;;-143.90;94.33;75488.53;4988913;28;101998;-73
2023/09/24 06:08:44;;;;;;;;;1.50;1.00;;;;;-143.90;94.03;75484.41;4976362;27;104964;-73
2023/09/24 06:11:11;;;;;;;;;0.50;0.50;;;;;-143.90;93.90;75482.34;4983309;28;102059;-74
2023/09/24 06:13:38;;;;;;;;;2.50;1.50;;;;;-143.90;94.29;75478.22;4983899;27;104666;-73
2023/09/24 06:16:06;;;;;;;;;1.00;1.00;;;;;-143.90;93.53;75472.00;4987605;27;102156;-73
2023/09/24 06:18:33;;;;;;;;;0.00;0.00;;;;;-143.90;92.98;75486.47;4986275;27;103683;-73
2023/09/24 06:21:02;;;;;;;;;0.50;0.50;;;;;-143.90;93.51;75476.13;4969696;27;102057;-73
2023/09/24 06:23:30;;;;;;;;;0.00;0.00;;;;;-143.90;93.03;75472.00;4988904;28;102177;-73
2023/09/24 06:25:58;;;;;;;;;0.00;0.00;;;;;-143.90;93.18;75474.06;4989375;28;102329;-73
2023/09/24 06:28:26;;;;;;;;;0.00;0.00;;;;;-143.90;93.26;75480.28;4987773;28;104178;-73
2023/09/24 06:31:03;;;;;;;;;1.75;1.75;;;;;-143.90;93.31;75476.13;4991359;27;102223;-73
2023/09/24 06:33:30;;;;;;;;;1.00;1.00;;;;;-143.90;93.57;75467.88;4985036;28;101989;-73
2023/09/24 06:35:57;;;;;;;;;0.50;0.50;;;;;-143.90;92.69;75461.66;4988251;27;102828;-73
2023/09/24 06:38:24;;;;;;;;;1.00;1.00;;;;;-143.90;92.16;75457.53;4989812;28;105555;-73
2023/09/24 06:41:02;;;;;;;;;0.50;0.50;;;;;-143.90;91.58;75463.72;4986806;27;101867;-74
2023/09/24 06:43:30;;;;;;;;;0.00;0.00;;;;;-143.90;91.00;75449.25;4980303;27;102929;-73
2023/09/24 06:45:57;;;;;;;;;0.00;0.00;;;;;-143.90;91.12;75457.53;4983715;28;102153;-73
2023/09/24 06:48:25;;;;;;;;;1.75;1.00;;;;;-143.90;90.76;75443.06;4984352;28;109571;-72
2023/09/24 06:50:55;;;;;;;;;0.00;0.00;;;;;-143.90;90.83;75465.81;4983553;27;102034;-74
2023/09/24 06:53:23;;;;;;;;;0.00;0.00;;;;;-143.90;90.29;75455.47;4982382;28;102344;-74
2023/09/24 06:55:50;;;;;;;;;0.75;0.00;;;;;-143.90;91.42;75451.31;4976894;27;102064;-74
2023/09/24 06:58:17;;;;;;;;;0.25;0.00;;;;;-143.90;91.19;75453.41;4983209;28;105165;-74
2023/09/24 07:00:44;;;;;;;;;1.00;1.00;;;;;-143.90;90.56;75453.41;4969581;28;105477;-73
2023/09/24 07:03:11;;;;;;;;;1.00;1.00;;;;;-143.90;89.23;75451.31;4979540;28;103397;-74
2023/09/24 07:05:38;;;;;;;;;1.00;1.00;;;;;-143.90;90.03;75443.06;4982775;28;102873;-74
2023/09/24 07:08:05;;;;;;;;;0.00;0.00;;;;;-143.90;90.28;75445.13;4979331;28;104181;-73
2023/09/24 07:10:32;;;;;;;;;0.75;0.75;;;;;-143.90;89.42;75436.84;4977094;28;102386;-73
2023/09/24 07:12:59;;;;;;;;;2.00;1.00;;;;;-143.90;89.41;75459.59;4980636;28;102409;-73
2023/09/24 07:15:26;;;;;;;;;0.50;0.50;;;;;-143.90;87.36;75451.31;4976252;28;102045;-74
2023/09/24 07:17:53;;;;;;;;;0.00;0.00;;;;;-143.90;87.19;75463.72;4981579;28;105219;-73
2023/09/24 07:20:20;;;;;;;;;1.00;1.00;;;;;-143.90;87.78;75453.41;4981259;28;101868;-73
2023/09/24 07:22:47;;;;;;;;;1.00;1.00;;;;;-143.90;87.63;75449.25;4979993;28;101938;-74
2023/09/24 07:25:14;;;;;;;;;1.00;1.00;;;;;-143.90;87.48;75430.66;4962481;28;104841;-74
2023/09/24 07:27:41;;;;;;;;;0.25;0.25;;;;;-143.90;87.35;75445.13;4957877;28;103405;-74
2023/09/24 07:30:09;;;;;;;;;0.50;0.50;;;;;-143.90;86.93;75430.66;4959886;28;102943;-73
2023/09/24 07:32:37;;;;;;;;;0.00;0.00;;;;;-143.90;88.46;75432.72;4953751;27;102190;-73
2023/09/24 07:35:05;;;;;;;;;0.50;0.50;;;;;-143.90;88.75;75424.44;4972824;28;104314;-73
2023/09/24 07:37:32;;;;;;;;;0.25;0.25;;;;;-143.90;87.70;75428.59;4981726;27;104121;-74
2023/09/24 07:39:59;;;;;;;;;3.25;3.25;;;;;-143.90;88.33;75428.59;4981941;28;102176;-73
2023/09/24 07:42:25;;;;;;;;;4.25;3.75;;;;;-143.90;85.39;75449.25;4985108;28;102171;-74
2023/09/24 07:44:52;;;;;;;;;2.25;2.00;;;;;-143.90;86.49;75459.59;4989222;28;102452;-74
2023/09/24 07:47:19;;;;;;;;;1.00;1.00;;;;;-143.90;87.22;75447.19;4970686;28;105079;-72
2023/09/24 07:49:46;;;;;;;;;5.00;4.00;;;;;-143.90;86.43;75453.41;4987549;28;102436;-73
2023/09/24 07:52:14;;;;;;;;;2.50;2.50;;;;;-143.90;87.39;75461.66;4987750;28;101929;-72
2023/09/24 07:54:42;;;;;;;;;3.25;2.25;;;;;-143.90;87.45;75465.81;4984782;28;102023;-72
2023/09/24 07:57:11;;;;;;;;;4.25;4.00;;;;;-143.90;86.63;75457.53;4979458;28;109933;-72
2023/09/24 07:59:38;;;;;;;;;5.25;5.25;;;;;-143.90;86.36;75455.47;4979588;27;102210;-73
2023/09/24 08:02:05;;;;;;;;;4.75;4.00;;;;;-143.90;85.25;75457.53;4987439;27;102367;-75
2023/09/24 08:04:32;;;;;;;;;1.00;1.00;;;;;-143.90;87.27;75449.25;4987495;28;102129;-73
2023/09/24 08:06:59;;;;;;;;;3.50;3.50;;;;;-143.90;86.31;75443.06;4981371;27;104136;-73
2023/09/24 08:09:26;;;;;;;;;2.00;2.00;;;;;-143.90;86.73;75445.13;4986144;28;102286;-73
2023/09/24 08:11:54;;;;;;;;;3.00;3.00;;;;;-143.90;88.26;75445.13;4969745;28;101988;-73
2023/09/24 08:14:22;;;;;;;;;2.50;2.50;;;;;-143.90;86.65;75430.66;4966288;28;102085;-73
2023/09/24 08:16:50;;;;;;;;;2.75;2.75;;;;;-143.90;86.16;75432.72;4982399;27;104276;-73
2023/09/24 08:19:17;;;;;;;;;7.25;7.25;;;;;-143.90;85.53;75422.38;4971600;28;102221;-72
2023/09/24 08:21:44;;;;;;;;;5.25;5.00;;;;;-143.90;85.10;75441.00;4971169;28;102931;-73
2023/09/24 08:24:11;;;;;;;;;4.00;4.00;;;;;-143.90;86.25;75453.41;4986927;27;101975;-74
2023/09/24 08:26:37;;;;;;;;;3.00;3.00;;;;;-143.90;86.43;75436.84;4980685;28;103673;-73
2023/09/24 08:29:06;;;;;;;;;5.75;5.00;;;;;-143.90;85.55;75436.84;4981581;28;101761;-74
2023/09/24 08:31:34;;;;;;;;;3.00;3.00;;;;;-143.90;86.87;75424.44;4986154;28;102531;-74
2023/09/24 08:34:03;;;;;;;;;6.75;5.25;;;;;-143.90;84.87;75430.66;4969136;28;102242;-73
2023/09/24 08:36:30;;;;;;;;;5.50;5.00;;;;;-143.90;85.04;75426.50;4965582;28;104033;-74
2023/09/24 08:38:57;;;;;;;;;8.00;6.75;;;;;-143.90;84.07;75424.44;4977453;28;104518;-74
2023/09/24 08:41:24;;;;;;;;;10.50;8.00;;;;;-143.90;83.87;75432.72;4976686;28;102556;-73
2023/09/24 08:43:55;;;;;;;;;5.00;5.00;;;;;-143.90;83.93;75438.94;4975844;27;102277;-73
2023/09/24 08:46:23;;;;;;;;;4.25;4.25;;;;;-143.90;84.34;75428.59;4980859;27;103537;-74
2023/09/24 08:48:52;;;;;;;;;3.00;3.00;;;;;-143.90;85.98;75424.44;4975468;28;102389;-73
2023/09/24 08:51:20;;;;;;;;;3.75;3.75;;;;;-143.90;85.42;75407.91;4982305;27;102002;-74
2023/09/24 08:53:47;;;;;;;;;3.25;2.25;;;;;-143.90;85.39;75397.56;4973151;28;102138;-74
2023/09/24 08:56:15;;;;;;;;;2.00;2.00;;;;;-143.90;84.02;75378.97;4972734;27;103746;-74
2023/09/24 08:58:43;;;;;;;;;1.00;1.00;;;;;-143.90;84.95;75366.56;4980557;28;102052;-73
2023/09/24 09:01:10;;;;;;;;;3.50;2.00;;;;;-143.90;85.14;75366.56;4979618;27;102499;-73
2023/09/24 09:03:38;;;;;;;;;3.50;2.75;;;;;-143.90;84.23;75345.88;4986812;27;102438;-74
2023/09/24 09:06:06;;;;;;;;;4.00;4.00;;;;;-143.90;82.24;75374.84;4970358;28;104789;-74
2023/09/24 09:08:52;;;;;;;;;3.00;3.00;;;;;-143.90;82.65;75385.16;4975954;28;102909;-74
2023/09/24 09:11:20;;;;;;;;;2.75;2.50;;;;;-143.90;83.73;75374.84;4976656;28;102067;-73
2023/09/24 09:13:52;;;;;;;;;2.00;1.67;;;;;-143.90;81.44;75370.69;4972680;28;102315;-74
2023/09/24 09:16:20;;;;;;;;;5.00;4.75;;;;;-143.90;84.37;75362.44;4980388;28;108025;-74
2023/09/24 09:19:08;;;;;;;;;3.50;3.00;;;;;-143.90;83.91;75339.69;4981328;28;102158;-74
2023/09/24 09:21:35;;;;;;;;;4.50;4.00;;;;;-143.90;82.24;75345.88;4980004;28;102203;-74
2023/09/24 09:24:03;;;;;;;;;4.25;4.00;;;;;-143.90;81.84;75350.03;4981501;27;102207;-74
2023/09/24 09:26:33;;;;;;;;;3.00;2.50;;;;;-143.90;83.47;75333.47;4965791;28;103600;-74
2023/09/24 09:29:03;;;;;;;;;2.33;2.00;;;;;-143.90;82.81;75323.16;4986257;27;102510;-73
2023/09/24 09:31:30;;;;;;;;;1.00;0.67;;;;;-143.90;82.48;75325.22;4981222;28;102356;-74
2023/09/24 09:34:06;;;;;;;;;3.00;2.67;;;;;-143.90;82.72;75312.81;4984079;28;102320;-74
2023/09/24 09:36:34;;;;;;;;;2.00;2.00;;;;;-143.90;82.26;75308.66;4981200;28;103768;-73
2023/09/24 09:39:02;;;;;;;;;1.67;1.67;;;;;-143.90;81.16;75316.94;4981691;27;102287;-73
2023/09/24 09:41:33;;;;;;;;;0.67;0.67;;;;;-143.90;81.51;75300.41;4988179;27;102428;-74
2023/09/24 09:44:10;;;;;;;;;3.00;2.33;;;;;-143.90;82.63;75312.81;4984624;28;102393;-73
2023/09/24 09:46:38;;;;;;;;;3.00;3.00;;;;;-143.90;82.41;75288.00;4993098;27;103751;-74
2023/09/24 09:49:10;;;;;;;;;3.00;3.00;;;;;-143.90;81.49;75281.78;4984508;28;103270;-73
2023/09/24 09:51:48;;;;;;;;;2.00;2.00;;;;;-143.90;80.68;75275.59;4974392;28;101861;-73
2023/09/24 09:54:21;;;;;;;;;3.00;2.00;;;;;-143.90;81.33;75259.06;4983044;28;102252;-72
2023/09/24 09:56:49;;;;;;;;;1.00;1.00;;;;;-143.90;81.82;75250.78;4984806;27;104192;-74
2023/09/24 09:59:16;;;;;;;;;2.33;2.33;;;;;-143.90;80.16;75259.06;4987472;28;102598;-72
2023/09/24 10:01:43;;;;;;;;;3.00;3.00;;;;;-143.90;79.81;75246.66;4982003;27;101972;-73
2023/09/24 10:04:11;;;;;;;;;1.67;1.67;;;;;-143.90;79.92;75236.31;4986234;28;102417;-73
2023/09/24 10:06:40;;;;;;;;;2.00;2.00;;;;;-143.90;80.32;75230.09;4983514;27;103502;-73
2023/09/24 10:09:29;;;;;;;;;3.67;3.67;;;;;-143.90;80.49;75236.31;4972754;27;102936;-73
2023/09/24 10:11:56;;;;;;;;;4.00;3.00;;;;;-143.90;77.98;75221.84;4967989;27;101997;-73
2023/09/24 10:14:33;;;;;;;;;2.00;1.33;;;;;-143.90;79.56;75223.91;4985863;28;102446;-72
2023/09/24 10:17:22;;;;;;;;;0.00;0.00;;;;;-143.90;79.77;75209.44;4982594;28;107686;-72
2023/09/24 10:19:58;;;;;;;;;2.00;2.00;;;;;-143.90;78.92;75211.50;4985441;28;102028;-73
2023/09/24 10:22:34;;;;;;;;;3.00;3.00;;;;;-143.90;78.08;75217.69;4972818;28;102518;-73
2023/09/24 10:25:31;;;;;;;;;2.67;2.67;;;;;-143.90;78.36;75188.75;4972663;27;103248;-72
2023/09/24 10:28:04;;;;;;;;;2.00;2.00;;;;;-143.90;76.99;75166.03;4980275;27;109075;-75
2023/09/24 10:31:03;;;;;;;;;1.67;1.67;;;;;-143.90;77.96;75151.53;4981621;27;102017;-74
2023/09/24 10:33:48;;;;;;;;;3.00;3.00;;;;;-143.90;77.53;75139.16;4983766;28;102240;-75
2023/09/24 10:36:29;;;;;;;;;3.00;3.00;;;;;-143.90;76.17;75163.94;4987270;27;102521;-73
2023/09/24 10:39:03;;;;;;;;;4.00;4.00;;;;;-143.90;76.56;75120.53;4981566;27;108546;-71
2023/09/24 10:41:34;;;;;;;;;3.33;3.00;;;;;-143.90;73.67;75114.34;4985932;28;102000;-73
2023/09/24 10:44:23;;;;;;;;;3.00;3.00;;;;;-143.90;72.47;75114.34;4983153;28;102425;-72
2023/09/24 10:46:51;;;;;;;;;3.00;3.00;;;;;-143.90;74.46;75110.19;4977952;27;102232;-73
2023/09/24 10:49:25;;;;;;;;;5.00;5.00;;;;;-143.90;72.94;75106.06;4984847;28;108164;-73
2023/09/24 10:52:01;;;;;;;;;2.00;2.00;;;;;-143.90;74.87;75101.94;4977314;27;101950;-74
2023/09/24 10:54:27;;;;;;;;;2.00;2.00;;;;;-143.90;73.47;75101.94;4984605;27;102183;-72
2023/09/24 10:56:54;;;;;;;;;4.00;3.00;;;;;-143.90;73.22;75095.72;4983694;27;102013;-72
2023/09/24 10:59:34;;;;;;;;;2.00;2.00;;;;;-143.90;73.75;75085.38;4981783;28;103473;-72
2023/09/24 11:02:17;;;;;;;;;1.33;1.33;;;;;-143.90;72.84;75089.53;4965708;28;102183;-72
2023/09/24 11:04:48;;;;;;;;;2.00;1.67;;;;;-143.90;72.67;75089.53;4965627;28;102083;-72
2023/09/24 11:07:15;;;;;;;;;2.00;2.00;;;;;-143.90;72.09;75097.78;4977772;27;102258;-73
2023/09/24 11:09:49;;;;;;;;;2.33;2.00;;;;;-143.90;69.05;75108.13;4969130;27;104167;-73
2023/09/24 11:12:16;;;;;;;;;3.00;2.00;;;;;-143.90;72.48;75139.16;4951477;28;102150;-72
2023/09/24 11:14:53;;;;;;;;;2.00;2.00;;;;;-143.90;73.37;75135.00;4971471;27;102012;-72
2023/09/24 11:17:40;;;;;;;;;2.67;1.67;;;;;-143.90;73.23;75135.00;4981979;28;102002;-73